Time;durP1;ratioP1;P1;durP2;ratioP2;P2;SDS_P1;SDS_P2;PMS_P1;PMS_P2;Temp;Humidity;BMP_temperature;BMP_pressure;BME280_temperature;BME280_humidity;BME280_pressure;Samples;Min_cycle;Max_cycle;Signal;HPM_P1;HPM_P2
2021/05/04 00:02:33;;;;;;;14.43;7.90;;;;;;;8.00;72.27;99277.88;4337681;81;28683;-83
2021/05/04 00:08:36;;;;;;;15.10;7.47;;;;;;;7.79;73.59;99272.56;4332585;81;28602;-82
2021/05/04 00:14:39;;;;;;;14.80;7.47;;;;;;;7.83;73.37;99270.30;4325706;81;28596;-84
2021/05/04 00:20:41;;;;;;;15.63;7.85;;;;;;;7.92;72.64;99265.04;4311153;81;28624;-84
2021/05/04 00:26:43;;;;;;;15.30;7.90;;;;;;;7.78;74.27;99264.73;4304967;81;28578;-83
2021/05/04 00:32:45;;;;;;;14.70;7.45;;;;;;;7.58;75.62;99262.88;4328976;81;28635;-81
2021/05/04 00:38:47;;;;;;;15.20;7.83;;;;;;;7.50;77.02;99257.22;4346282;81;28579;-82
2021/05/04 00:44:51;;;;;;;13.35;6.70;;;;;;;7.31;78.39;99264.72;4324340;81;28592;-82
2021/05/04 00:50:53;;;;;;;13.58;6.95;;;;;;;7.27;79.93;99261.63;4331729;81;28572;-84
2021/05/04 00:56:56;;;;;;;15.70;7.03;;;;;;;7.21;78.99;99259.25;4297763;81;28626;-84
2021/05/04 01:02:58;;;;;;;18.82;8.15;;;;;;;7.35;76.72;99251.27;4339005;81;28647;-83
2021/05/04 01:09:00;;;;;;;14.45;7.50;;;;;;;7.38;76.31;99245.50;4316924;81;28616;-83
2021/05/04 01:15:04;;;;;;;16.77;7.50;;;;;;;7.12;79.89;99245.77;4298702;81;28583;-85
2021/05/04 01:21:06;;;;;;;13.90;7.30;;;;;;;7.10;80.36;99237.96;4322827;81;28615;-84
2021/05/04 01:27:08;;;;;;;13.62;7.28;;;;;;;7.05;80.17;99231.05;4341317;81;28588;-85
2021/05/04 01:33:11;;;;;;;12.80;6.78;;;;;;;6.86;80.58;99223.31;4297437;81;28583;-85
2021/05/04 01:39:13;;;;;;;16.12;7.72;;;;;;;6.98;79.49;99227.03;4293632;81;28595;-85
2021/05/04 01:45:17;;;;;;;15.10;7.05;;;;;;;6.96;79.49;99218.40;4309379;80;28574;-86
2021/05/04 01:51:19;;;;;;;13.25;6.97;;;;;;;6.73;79.88;99208.06;4336931;81;28682;-86
2021/05/04 01:57:22;;;;;;;14.68;7.30;;;;;;;6.64;81.31;99203.92;4327469;81;28595;-82
2021/05/04 02:03:24;;;;;;;12.50;6.58;;;;;;;6.57;82.96;99196.42;4307262;82;28662;-82
2021/05/04 02:09:27;;;;;;;14.95;7.22;;;;;;;6.47;81.85;99190.95;4322406;82;28590;-81
2021/05/04 02:15:29;;;;;;;13.55;6.87;;;;;;;6.44;82.20;99192.66;4325615;81;28593;-83
2021/05/04 02:21:32;;;;;;;10.80;6.17;;;;;;;6.57;83.24;99191.88;4308960;82;28576;-83
2021/05/04 02:27:34;;;;;;;14.03;7.08;;;;;;;6.75;79.90;99191.31;4310980;81;28580;-82
2021/05/04 02:33:39;;;;;;;11.03;6.42;;;;;;;6.61;80.02;99197.66;4331678;82;28642;-82
2021/05/04 02:39:41;;;;;;;10.40;5.80;;;;;;;6.39;81.52;99188.44;4295920;81;28595;-83
2021/05/04 02:45:43;;;;;;;12.80;5.87;;;;;;;6.37;83.63;99185.16;4336828;80;28591;-86
2021/05/04 02:51:45;;;;;;;9.30;5.37;;;;;;;6.28;82.22;99178.65;4344795;81;28629;-85
2021/05/04 02:57:47;;;;;;;13.58;6.10;;;;;;;6.20;83.48;99185.48;4324017;80;28620;-85
2021/05/04 03:03:49;;;;;;;11.28;5.90;;;;;;;6.17;83.22;99186.39;4336998;81;28636;-79
2021/05/04 03:09:51;;;;;;;11.68;5.85;;;;;;;6.28;81.48;99188.48;4320707;81;28579;-79
2021/05/04 03:15:54;;;;;;;9.90;5.85;;;;;;;6.25;81.68;99178.22;4320174;81;28647;-80
2021/05/04 03:21:56;;;;;;;12.20;5.45;;;;;;;6.17;83.11;99170.37;4335737;81;28614;-81
2021/05/04 03:27:59;;;;;;;12.15;5.67;;;;;;;6.13;84.58;99152.59;4319375;81;28644;-80
2021/05/04 03:34:01;;;;;;;7.70;5.03;;;;;;;6.09;85.57;99152.19;4326140;81;28599;-81
2021/05/04 03:40:05;;;;;;;10.70;5.70;;;;;;;6.24;86.54;99141.86;4341997;81;28633;-80
2021/05/04 03:46:07;;;;;;;8.58;5.12;;;;;;;6.36;89.43;99132.24;4310628;81;28707;-80
2021/05/04 03:52:09;;;;;;;10.88;5.42;;;;;;;6.81;86.77;99129.05;4330761;81;28568;-81
2021/05/04 03:58:12;;;;;;;11.33;5.53;;;;;;;6.93;86.82;99126.59;4346957;81;43257;-81
2021/05/04 04:04:14;;;;;;;9.68;5.17;;;;;;;7.39;86.39;99129.44;4333967;81;28682;-80
2021/05/04 04:10:16;;;;;;;10.20;5.42;;;;;;;7.39;87.51;99124.92;4371911;81;28713;-81
2021/05/04 04:16:18;;;;;;;10.13;5.33;;;;;;;7.95;84.34;99123.22;4306996;81;28630;-80
2021/05/04 04:22:20;;;;;;;9.98;5.65;;;;;;;8.08;84.51;99116.49;4307374;81;28593;-81
2021/05/04 04:28:22;;;;;;;11.57;5.28;;;;;;;8.26;83.91;99118.97;4324433;81;28590;-81
2021/05/04 04:34:24;;;;;;;8.80;5.10;;;;;;;8.43;84.42;99115.80;4322095;80;28665;-81
2021/05/04 04:40:26;;;;;;;10.00;5.08;;;;;;;8.89;78.78;99109.85;4315400;81;28587;-80
2021/05/04 04:46:39;;;;;;;10.38;5.00;;;;;;;9.21;74.85;99108.45;4309742;82;28576;-81
2021/05/04 04:52:32;;;;;;;7.08;4.15;;;;;;;9.57;73.54;99102.81;4300547;82;28568;-80
2021/05/04 04:58:35;;;;;;;6.25;3.65;;;;;;;9.87;67.14;99114.16;4338291;81;28686;-81
2021/05/04 05:04:36;;;;;;;7.37;3.90;;;;;;;10.18;61.08;99109.65;4290041;82;28614;-81
2021/05/04 05:10:38;;;;;;;8.45;3.35;;;;;;;10.56;60.51;99107.71;4315338;82;28661;-81
2021/05/04 05:16:41;;;;;;;7.25;3.50;;;;;;;10.81;56.78;99105.39;4310888;81;28655;-81
2021/05/04 05:22:44;;;;;;;4.95;2.72;;;;;;;10.95;55.58;99091.72;4316143;82;28961;-80
2021/05/04 05:28:46;;;;;;;5.42;3.02;;;;;;;11.22;53.17;99086.70;4320375;80;28615;-80
2021/05/04 05:34:48;;;;;;;4.92;2.30;;;;;;;11.41;52.70;99087.42;4321926;82;28588;-81
2021/05/04 05:40:50;;;;;;;4.37;2.22;;;;;;;11.49;52.92;99080.85;4333631;80;28634;-81
2021/05/04 05:46:53;;;;;;;4.55;1.92;;;;;;;11.79;50.88;99069.60;4338007;80;28581;-80
2021/05/04 05:52:57;;;;;;;4.62;2.10;;;;;;;12.05;50.51;99065.56;4341554;81;28590;-81
2021/05/04 05:58:59;;;;;;;2.90;1.50;;;;;;;12.37;49.41;99048.89;4326142;81;28641;-81
2021/05/04 06:05:02;;;;;;;3.70;1.67;;;;;;;12.40;47.06;99047.60;4331379;81;28631;-80
2021/05/04 06:11:04;;;;;;;3.50;1.60;;;;;;;12.80;46.15;99032.33;4330473;80;28619;-81
2021/05/04 06:17:07;;;;;;;2.70;1.35;;;;;;;13.09;45.25;99022.27;4313253;81;28576;-81
2021/05/04 06:23:10;;;;;;;2.12;1.42;;;;;;;13.33;45.06;99001.78;4324025;81;28595;-81
2021/05/04 06:29:12;;;;;;;3.45;1.77;;;;;;;13.82;43.68;98992.66;4365355;81;28563;-83
2021/05/04 06:35:19;;;;;;;2.65;1.30;;;;;;;14.83;42.39;98978.67;4347216;81;28572;-83
2021/05/04 06:41:21;;;;;;;2.37;1.70;;;;;;;15.25;40.44;98968.34;4302293;80;28607;-84
2021/05/04 06:47:23;;;;;;;3.62;1.50;;;;;;;15.67;39.31;98963.08;4307418;80;28580;-84
2021/05/04 06:53:26;;;;;;;1.30;1.05;;;;;;;15.99;37.98;98943.15;4330842;81;28618;-82
2021/05/04 06:59:28;;;;;;;2.60;1.30;;;;;;;15.94;38.37;98941.24;4330689;80;28578;-85
2021/05/04 07:05:31;;;;;;;2.47;1.62;;;;;;;16.23;37.46;98929.05;4335333;80;28585;-83
2021/05/04 07:11:33;;;;;;;3.47;1.45;;;;;;;16.12;37.61;98918.20;4321540;81;28610;-84
2021/05/04 07:17:35;;;;;;;1.82;1.30;;;;;;;16.23;38.54;98910.86;4322119;80;28561;-84
2021/05/04 07:23:38;;;;;;;2.02;1.12;;;;;;;15.89;37.41;98893.75;4350447;81;28640;-84
2021/05/04 07:29:41;;;;;;;3.67;1.32;;;;;;;15.94;36.80;98882.95;4329414;80;28659;-84
2021/05/04 07:35:43;;;;;;;4.47;1.50;;;;;;;16.27;36.90;98872.63;4335988;80;28565;-82
2021/05/04 07:41:45;;;;;;;5.53;1.50;;;;;;;16.00;37.39;98866.94;4322513;81;28755;-83
2021/05/04 07:47:54;;;;;;;2.60;1.32;;;;;;;16.52;37.70;98854.67;4309064;80;28572;-83
2021/05/04 07:53:51;;;;;;;2.55;1.17;;;;;;;16.57;36.25;98843.81;4312895;80;28572;-84
2021/05/04 07:59:55;;;;;;;3.80;1.25;;;;;;;16.99;36.66;98826.81;4311956;81;28645;-81
2021/05/04 08:05:57;;;;;;;3.33;1.50;;;;;;;17.13;35.74;98813.47;4302422;82;28625;-82
2021/05/04 08:11:59;;;;;;;2.92;1.40;;;;;;;17.56;36.55;98805.32;4317563;80;28581;-82
2021/05/04 08:18:04;;;;;;;5.22;1.60;;;;;;;17.82;35.90;98792.33;4326977;80;28616;-83
2021/05/04 08:24:06;;;;;;;3.27;1.50;;;;;;;18.36;35.00;98786.94;4318572;82;28672;-83
2021/05/04 08:30:09;;;;;;;5.72;1.55;;;;;;;18.00;34.24;98769.61;4324702;80;28672;-86
2021/05/04 08:36:13;;;;;;;2.30;1.55;;;;;;;18.83;34.10;98781.49;4309140;82;28583;-82
2021/05/04 08:42:17;;;;;;;2.37;1.40;;;;;;;19.34;34.14;98769.91;4200199;83;28558;-82
2021/05/04 08:48:20;;;;;;;3.22;1.87;;;;;;;19.61;33.65;98760.22;4218699;84;28617;-81
2021/05/04 08:54:23;;;;;;;2.65;1.20;;;;;;;19.86;32.94;98745.09;4347418;81;28679;-83
2021/05/04 09:00:26;;;;;;;1.90;1.30;;;;;;;19.45;31.53;98741.94;4352591;81;28611;-82
2021/05/04 09:06:38;;;;;;;3.05;1.40;;;;;;;19.58;31.48;98731.38;4200130;84;28593;-82
2021/05/04 09:12:55;;;;;;;2.27;1.30;;;;;;;19.57;32.14;98717.48;4367909;81;28627;-84
2021/05/04 09:19:07;;;;;;;2.62;1.40;;;;;;;19.66;32.30;98706.16;4336784;81;28604;-82
2021/05/04 09:24:56;;;;;;;2.05;1.20;;;;;;;19.65;32.44;98697.15;4347650;81;28625;-80
2021/05/04 09:30:58;;;;;;;1.98;1.40;;;;;;;19.87;31.76;98688.05;4335922;80;28630;-85
2021/05/04 09:37:00;;;;;;;3.05;1.22;;;;;;;19.84;31.99;98683.21;4327471;81;28610;-84
2021/05/04 09:43:18;;;;;;;1.20;1.10;;;;;;;20.27;31.02;98658.91;4328197;81;28646;-86
2021/05/04 09:49:30;;;;;;;1.57;1.00;;;;;;;20.65;31.06;98645.54;4333851;81;28629;-86
2021/05/04 09:55:32;;;;;;;3.87;1.35;;;;;;;20.49;30.50;98633.61;4337284;80;28668;-84
2021/05/04 10:01:34;;;;;;;2.42;1.10;;;;;;;21.21;30.77;98611.98;4335512;80;28650;-83
2021/05/04 10:07:38;;;;;;;1.98;1.30;;;;;;;21.34;31.22;98601.28;4331043;80;28663;-82
2021/05/04 10:13:42;;;;;;;2.85;1.20;;;;;;;21.40;30.46;98592.65;4327229;80;28670;-83
2021/05/04 10:19:45;;;;;;;2.02;1.30;;;;;;;21.51;30.33;98578.70;4335233;80;28623;-83
2021/05/04 10:25:54;;;;;;;2.05;1.20;;;;;;;21.36;30.83;98562.15;4340702;81;28584;-83
2021/05/04 10:31:58;;;;;;;1.82;1.27;;;;;;;21.81;29.52;98554.34;4339289;80;28670;-83
2021/05/04 10:38:04;;;;;;;1.20;1.05;;;;;;;21.95;29.75;98535.89;4320876;81;28641;-86
2021/05/04 10:44:08;;;;;;;2.12;1.35;;;;;;;22.00;29.95;98515.77;4352480;81;28592;-84
2021/05/04 10:50:23;;;;;;;1.80;1.07;;;;;;;22.46;29.31;98501.20;4337052;80;28626;-82
2021/05/04 10:56:41;;;;;;;;;;;;;;;23.19;28.08;98494.69;4345955;80;28607;-83
2021/05/04 11:02:43;;;;;;;4.00;1.10;;;;;;;22.24;26.51;98485.20;4319440;80;20206;-83
2021/05/04 11:08:51;;;;;;;1.65;1.00;;;;;;;23.08;26.42;98466.27;4183709;84;28640;-83
2021/05/04 11:15:15;;;;;;;3.47;1.70;;;;;;;22.67;25.33;98458.09;4224067;84;28662;-85
2021/05/04 11:21:45;;;;;;;3.22;1.30;;;;;;;22.40;26.52;98466.34;4245213;83;28648;-85
2021/05/04 11:27:52;;;;;;;1.77;1.20;;;;;;;22.91;26.23;98440.28;4240872;83;28601;-85
2021/05/04 11:33:55;;;;;;;2.42;1.45;;;;;;;23.02;26.34;98429.19;4252627;83;28561;-85
2021/05/04 11:40:05;;;;;;;3.25;1.50;;;;;;;23.17;26.47;98412.75;4235961;83;28726;-85
2021/05/04 11:46:07;;;;;;;2.20;1.60;;;;;;;22.75;26.40;98409.88;4209616;84;28581;-85
2021/05/04 11:52:09;;;;;;;3.80;1.30;;;;;;;22.72;25.79;98407.80;4172985;84;28658;-85
2021/05/04 11:58:28;;;;;;;1.92;1.40;;;;;;;22.77;26.34;98396.65;4214448;84;28631;-83
2021/05/04 12:04:52;;;;;;;1.72;1.30;;;;;;;22.08;24.51;98400.02;4176102;83;28961;-83
2021/05/04 12:10:55;;;;;;;2.90;1.60;;;;;;;21.98;24.41;98381.98;4261955;82;28950;-85
2021/05/04 12:17:01;;;;;;;3.90;1.50;;;;;;;22.17;24.68;98360.86;4162005;84;28573;-84
2021/05/04 12:23:06;;;;;;;3.10;1.30;;;;;;;22.53;25.19;98362.42;4153768;84;28613;-85
2021/05/04 12:29:09;;;;;;;1.98;1.10;;;;;;;22.42;24.76;98341.39;4173405;84;28641;-85
2021/05/04 12:35:26;;;;;;;1.80;1.00;;;;;;;22.66;24.64;98334.00;4197702;84;28613;-86
2021/05/04 12:41:35;;;;;;;1.72;1.07;;;;;;;23.29;25.09;98333.11;4183165;84;28581;-85
2021/05/04 12:47:54;;;;;;;1.77;0.88;;;;;;;22.85;25.08;98313.61;4206100;84;28549;-86
2021/05/04 12:54:11;;;;;;;1.85;1.10;;;;;;;22.93;24.28;98306.45;4202359;84;28645;-84
2021/05/04 13:00:20;;;;;;;;;;;;;;;23.39;24.68;98290.20;4193409;84;28576;-82
2021/05/04 13:06:29;;;;;;;2.77;1.10;;;;;;;23.14;23.90;98296.09;4179763;84;20261;-83
2021/05/04 13:31:08;;;;;;;1.60;1.50;;;;;;;23.55;22.85;98282.16;4170495;84;28579;-85
2021/05/04 13:37:16;;;;;;;4.42;1.72;;;;;;;23.32;22.85;98292.67;4203025;84;28578;-85
2021/05/04 13:49:36;;;;;;;6.90;1.62;;;;;;;24.13;24.86;98246.33;4188108;82;28572;-85
2021/05/04 13:55:39;;;;;;;3.95;2.08;;;;;;;24.13;24.79;98247.14;4197086;84;28667;-86
2021/05/04 14:01:46;;;;;;;2.40;2.10;;;;;;;24.00;24.28;98237.23;4328979;81;28682;-85
2021/05/04 14:26:49;;;;;;;1.85;1.62;;;;;;;23.38;25.21;98241.98;4191596;84;28620;-85
2021/05/04 14:32:52;;;;;;;3.30;1.85;;;;;;;23.25;26.10;98237.78;4197110;84;28785;-85
2021/05/04 14:57:54;;;;;;;4.12;1.52;;;;;;;23.55;25.76;98211.42;4320529;81;28622;-84
2021/05/04 15:03:44;;;;;;;2.90;1.65;;;;;;;23.71;26.04;98205.51;4315610;81;28576;-84
2021/05/04 15:09:46;;;;;;;1.80;1.70;;;;;;;24.06;25.88;98200.22;4320620;80;28622;-81
2021/05/04 15:16:01;;;;;;;2.58;1.50;;;;;;;24.25;26.09;98185.92;4329342;81;28588;-83
2021/05/04 15:21:58;;;;;;;3.30;1.70;;;;;;;24.37;26.03;98178.26;4330400;81;28568;-83
2021/05/04 15:27:59;;;;;;;4.08;2.58;;;;;;;24.30;25.80;98165.11;4327247;80;28581;-82
2021/05/04 15:34:06;;;;;;;2.37;1.55;;;;;;;24.31;26.27;98148.85;4352027;80;28557;-83
2021/05/04 15:40:09;;;;;;;3.58;1.70;;;;;;;23.99;26.88;98143.67;4312970;80;28671;-85
2021/05/04 15:52:26;;;;;;;3.05;1.77;;;;;;;23.78;27.33;98119.88;4330045;80;28632;-84
2021/05/04 16:11:03;;;;;;;2.65;1.55;;;;;;;24.01;28.00;98105.72;4330722;80;28622;-82
2021/05/04 16:17:05;;;;;;;3.20;1.72;;;;;;;23.62;28.60;98098.61;4326928;80;28592;-83
2021/05/04 16:35:28;;;;;;;3.95;1.57;;;;;;;23.03;28.03;98067.61;4384782;78;28605;-85
2021/05/04 16:41:30;;;;;;;2.25;1.40;;;;;;;23.02;28.39;98065.22;4398717;79;28672;-84
2021/05/04 16:47:34;;;;;;;4.17;1.50;;;;;;;22.82;28.09;98065.71;4438854;78;28587;-85
2021/05/04 16:53:37;;;;;;;2.47;1.55;;;;;;;22.97;27.75;98056.05;4411349;78;28647;-84
2021/05/04 16:59:39;;;;;;;5.40;1.70;;;;;;;22.80;27.46;98048.00;4401442;78;28686;-83
2021/05/04 17:05:44;;;;;;;3.05;1.50;;;;;;;22.61;27.53;98052.61;4403895;79;28638;-84
2021/05/04 17:11:45;;;;;;;3.72;1.52;;;;;;;22.52;27.76;98039.78;4406883;80;28547;-83
2021/05/04 17:17:47;;;;;;;1.98;1.32;;;;;;;22.52;27.62;98030.78;4373583;80;28579;-82
2021/05/04 17:23:50;;;;;;;3.60;1.60;;;;;;;22.33;27.71;98027.11;4410885;80;28576;-83
2021/05/04 17:29:53;;;;;;;2.62;1.95;;;;;;;22.17;28.27;98022.80;4389571;78;28590;-82
2021/05/04 17:35:58;;;;;;;4.17;1.80;;;;;;;22.00;28.24;98030.80;4396284;78;28612;-84
2021/05/04 17:42:00;;;;;;;1.95;1.52;;;;;;;21.92;28.52;98022.66;4372731;80;28713;-83
2021/05/04 17:48:04;;;;;;;3.33;2.00;;;;;;;21.71;28.72;98025.60;4322652;78;28591;-82
2021/05/04 17:54:11;;;;;;;4.33;2.00;;;;;;;21.63;28.65;98022.87;4286060;81;28599;-83
2021/05/04 18:00:15;;;;;;;4.63;2.17;;;;;;;21.33;29.01;98016.81;4236513;81;33556;-83
2021/05/04 18:06:23;;;;;;;5.65;2.67;;;;;;;21.18;29.41;98008.01;4310305;80;28587;-84
2021/05/04 18:25:04;;;;;;;7.37;2.85;;;;;;;20.32;31.25;98014.08;4234610;81;28641;-81
2021/05/04 18:31:14;;;;;;;6.42;3.20;;;;;;;20.22;31.77;98019.06;4197568;82;28648;-83
2021/05/04 20:12:02;;;;;;;5.47;3.47;;;;;;;18.37;35.10;97988.52;4366753;79;247646;-84
2021/05/04 20:18:07;;;;;;;5.95;3.77;;;;;;;18.57;35.06;97982.91;4270553;80;289985;-83
2021/05/04 20:24:09;;;;;;;4.62;2.70;;;;;;;18.60;35.07;97986.36;4321072;80;28585;-82
2021/05/04 20:30:17;;;;;;;5.23;2.87;;;;;;;18.18;36.40;97981.89;4317610;80;28659;-81
2021/05/04 20:36:20;;;;;;;3.73;2.43;;;;;;;18.03;36.56;97978.14;4316165;81;28649;-83
2021/05/04 20:42:25;;;;;;;5.20;2.50;;;;;;;18.19;35.98;97977.27;4318726;81;28595;-82
2021/05/04 20:48:33;;;;;;;4.95;2.90;;;;;;;18.08;36.65;97971.25;4302557;80;28538;-81
2021/05/04 20:54:35;;;;;;;;;;;;;;;17.96;36.61;97971.20;4324474;81;28574;-82
2021/05/04 21:00:38;;;;;;;4.00;2.12;;;;;;;18.34;35.73;97980.19;4309648;80;20457;-82
2021/05/04 21:06:40;;;;;;;4.45;1.80;;;;;;;18.32;35.83;97979.13;4332569;80;28980;-84
2021/05/04 21:12:45;;;;;;;3.10;2.05;;;;;;;18.41;35.53;97987.34;4309708;80;28649;-85
2021/05/04 21:18:47;;;;;;;4.47;2.00;;;;;;;18.41;35.68;97972.38;4313069;81;28658;-84
2021/05/04 21:31:00;;;;;;;3.45;1.80;;;;;;;18.44;36.60;97980.48;4297360;82;28655;-83
2021/05/04 21:37:04;;;;;;;3.25;1.77;;;;;;;18.39;36.00;97979.50;4320458;82;28577;-83
2021/05/04 21:43:10;;;;;;;2.33;1.60;;;;;;;18.53;35.74;97980.81;4299645;82;28635;-82
2021/05/04 21:49:15;;;;;;;5.08;2.08;;;;;;;18.37;36.36;97979.56;4337953;82;28640;-82
2021/05/04 21:55:22;;;;;;;3.33;1.80;;;;;;;18.30;37.26;97979.99;4321585;80;28646;-83
2021/05/04 22:01:24;;;;;;;3.58;1.87;;;;;;;18.18;37.80;97971.02;4348496;80;28604;-82
2021/05/04 22:07:26;;;;;;;2.87;1.90;;;;;;;18.15;37.29;97971.64;4324332;81;28580;-83
2021/05/04 22:13:44;;;;;;;2.10;1.40;;;;;;;18.17;36.60;97974.03;4315021;80;28655;-80
2021/05/04 22:20:06;;;;;;;4.90;1.43;;;;;;;18.18;36.14;97971.58;4331539;82;28568;-82
2021/05/04 22:38:23;;;;;;;1.65;1.32;;;;;;;18.38;35.55;97960.76;4325268;82;28569;-81
2021/05/04 23:21:58;;;;;;;4.53;1.40;;;;;;;18.59;35.66;97933.86;4339117;81;28579;-81
2021/05/04 23:28:00;;;;;;;3.67;1.70;;;;;;;18.61;35.44;97932.98;4317720;81;28576;-80
2021/05/04 23:34:02;;;;;;;4.50;1.40;;;;;;;18.52;36.17;97930.76;4324513;81;28688;-81
2021/05/04 23:40:07;;;;;;;3.80;1.62;;;;;;;18.46;36.54;97923.83;4348553;81;28667;-81
2021/05/04 23:46:09;;;;;;;2.05;1.50;;;;;;;18.34;37.31;97921.12;4346424;81;28628;-80
2021/05/04 23:52:11;;;;;;;3.50;1.30;;;;;;;18.33;36.82;97926.31;4329193;81;28582;-81
2021/05/04 23:58:13;;;;;;;3.45;1.47;;;;;;;18.45;36.87;97916.23;4336850;81;28609;-81
